PWSweather.com
Personal Weather Stations
Station Observations
KYSHEP1
Lotus Point, Shepherdsville, KY 40165

Lotus PointShepherdsville, KY 40165

Lat: 37.933, Lon: -85.59

Elevation: 709

Station Type: WeatherFlow

http://bullittcountyky.us/weather/index.php

Latest ConditionsUpdated 4:30:03 AM EST Thursday, Dec 12, 2019
Currently Today's Max Today's Min Today's Average
Temperature 25.0°F-3.9°C 27.3°F-2.6°C 25.0°F-3.9°C 25.9°F-3.4°C
Dew Point 20.6°F-6.3°C 22.4°F-5.3°C 20.4°F-6.4°C 21.2°F-6.0°C
Winds Calm Calm 1.2 mph -1.9 kmh - - 0.1 mph 0.2 kmh
Wind Gusts -- 3.5 mph5.6 kmh - -
Humidity 83% 83% 81% 82%
Pressure 30.53 in1033.9 mb 30.54 in1034.2 mb 30.51 in1033.2 mb -
Hour Temp Dew Point Humidity Winds Wind Gusts Pressure Precip Precip Rate Daily Precip Total
04:30 AM 25.0°F-3.9°C 20.6°F-6.3°C 83% Calm Calm -- 30.53 in1033.9 mb - 0.00 in0.0 mm 0.00 in0.0 mm
04:25 AM 25.0°F-3.9°C 20.5°F-6.4°C 83% Calm Calm -- 30.53 in1033.9 mb - 0.00 in0.0 mm 0.00 in0.0 mm
04:20 AM 25.2°F-3.8°C 20.7°F-6.3°C 83% Calm Calm 2.3 mph3.7 kmh 30.54 in1034.2 mb - 0.00 in0.0 mm 0.00 in0.0 mm
04:15 AM 25.0°F-3.9°C 20.5°F-6.4°C 83% 1.2 mph SE1.9 kmh SE 2.3 mph3.7 kmh 30.54 in1034.2 mb - 0.00 in0.0 mm 0.00 in0.0 mm
04:10 AM 25.0°F-3.9°C 20.5°F-6.4°C 83% Calm Calm 2.3 mph3.7 kmh 30.54 in1034.2 mb - 0.00 in0.0 mm 0.00 in0.0 mm
04:00 AM 25.2°F-3.8°C 20.7°F-6.3°C 83% Calm Calm 2.3 mph3.7 kmh 30.54 in1034.2 mb - 0.00 in0.0 mm 0.00 in0.0 mm
03:55 AM 25.2°F-3.8°C 20.8°F-6.2°C 83% Calm Calm 1.2 mph1.9 kmh 30.54 in1034.2 mb - 0.00 in0.0 mm 0.00 in0.0 mm
03:50 AM 25.3°F-3.7°C 20.9°F-6.2°C 83% Calm Calm 1.2 mph1.9 kmh 30.54 in1034.2 mb - 0.00 in0.0 mm 0.00 in0.0 mm
03:45 AM 25.5°F-3.6°C 21.0°F-6.1°C 83% 1.2 mph ESE1.9 kmh ESE 3.5 mph5.6 kmh 30.53 in1033.9 mb - 0.00 in0.0 mm 0.00 in0.0 mm
03:40 AM 25.5°F-3.6°C 21.1°F-6.1°C 83% Calm Calm 1.2 mph1.9 kmh 30.54 in1034.2 mb - 0.00 in0.0 mm 0.00 in0.0 mm
03:35 AM 25.5°F-3.6°C 21.1°F-6.1°C 83% Calm Calm -- 30.54 in1034.2 mb - 0.00 in0.0 mm 0.00 in0.0 mm
03:30 AM 25.5°F-3.6°C 21.1°F-6.1°C 83% Calm Calm -- 30.54 in1034.2 mb - 0.00 in0.0 mm 0.00 in0.0 mm
03:25 AM 25.3°F-3.7°C 20.9°F-6.2°C 83% Calm Calm -- 30.54 in1034.2 mb - 0.00 in0.0 mm 0.00 in0.0 mm
03:20 AM 25.2°F-3.8°C 20.7°F-6.3°C 83% Calm Calm -- 30.54 in1034.2 mb - 0.00 in0.0 mm 0.00 in0.0 mm
03:15 AM 25.2°F-3.8°C 20.4°F-6.4°C 82% Calm Calm -- 30.54 in1034.2 mb - 0.00 in0.0 mm 0.00 in0.0 mm
03:10 AM 25.2°F-3.8°C 20.4°F-6.4°C 82% Calm Calm -- 30.54 in1034.2 mb - 0.00 in0.0 mm 0.00 in0.0 mm
03:00 AM 25.5°F-3.6°C 20.8°F-6.2°C 82% Calm Calm -- 30.54 in1034.2 mb - 0.00 in0.0 mm 0.00 in0.0 mm
02:55 AM 25.5°F-3.6°C 20.8°F-6.2°C 82% Calm Calm -- 30.54 in1034.2 mb - 0.00 in0.0 mm 0.00 in0.0 mm
02:50 AM 25.7°F-3.5°C 21.0°F-6.1°C 82% Calm Calm -- 30.54 in1034.2 mb - 0.00 in0.0 mm 0.00 in0.0 mm
02:45 AM 25.7°F-3.5°C 21.0°F-6.1°C 82% Calm Calm -- 30.54 in1034.2 mb - 0.00 in0.0 mm 0.00 in0.0 mm
02:40 AM 25.9°F-3.4°C 21.1°F-6.1°C 82% Calm Calm -- 30.54 in1034.2 mb - 0.00 in0.0 mm 0.00 in0.0 mm
02:35 AM 25.9°F-3.4°C 21.1°F-6.1°C 82% Calm Calm -- 30.54 in1034.2 mb - 0.00 in0.0 mm 0.00 in0.0 mm
02:30 AM 25.9°F-3.4°C 21.1°F-6.1°C 82% Calm Calm -- 30.53 in1033.9 mb - 0.00 in0.0 mm 0.00 in0.0 mm
02:25 AM 26.1°F-3.3°C 21.3°F-5.9°C 82% Calm Calm -- 30.53 in1033.9 mb - 0.00 in0.0 mm 0.00 in0.0 mm
02:20 AM 26.2°F-3.2°C 21.5°F-5.8°C 82% Calm Calm -- 30.53 in1033.9 mb - 0.00 in0.0 mm 0.00 in0.0 mm
02:15 AM 26.4°F-3.1°C 21.7°F-5.7°C 82% Calm Calm -- 30.52 in1033.5 mb - 0.00 in0.0 mm 0.00 in0.0 mm
02:10 AM 26.4°F-3.1°C 21.7°F-5.7°C 82% Calm Calm -- 30.52 in1033.5 mb - 0.00 in0.0 mm 0.00 in0.0 mm
02:00 AM 26.2°F-3.2°C 21.5°F-5.8°C 82% Calm Calm -- 30.52 in1033.5 mb - 0.00 in0.0 mm 0.00 in0.0 mm
01:55 AM 26.2°F-3.2°C 21.7°F-5.7°C 83% Calm Calm -- 30.52 in1033.5 mb - 0.00 in0.0 mm 0.00 in0.0 mm
01:50 AM 26.1°F-3.3°C 21.3°F-5.9°C 82% Calm Calm -- 30.52 in1033.5 mb - 0.00 in0.0 mm 0.00 in0.0 mm
01:45 AM 25.9°F-3.4°C 21.1°F-6.1°C 82% Calm Calm -- 30.51 in1033.2 mb - 0.00 in0.0 mm 0.00 in0.0 mm
01:40 AM 25.9°F-3.4°C 21.1°F-6.1°C 82% Calm Calm -- 30.51 in1033.2 mb - 0.00 in0.0 mm 0.00 in0.0 mm
01:35 AM 25.9°F-3.4°C 21.1°F-6.1°C 82% Calm Calm -- 30.51 in1033.2 mb - 0.00 in0.0 mm 0.00 in0.0 mm
01:30 AM 25.9°F-3.4°C 21.2°F-6.0°C 82% Calm Calm -- 30.52 in1033.5 mb - 0.00 in0.0 mm 0.00 in0.0 mm
01:25 AM 26.1°F-3.3°C 21.3°F-5.9°C 82% Calm Calm -- 30.51 in1033.2 mb - 0.00 in0.0 mm 0.00 in0.0 mm
01:20 AM 26.1°F-3.3°C 21.3°F-5.9°C 82% Calm Calm -- 30.52 in1033.5 mb - 0.00 in0.0 mm 0.00 in0.0 mm
01:15 AM 26.1°F-3.3°C 21.3°F-5.9°C 82% Calm Calm -- 30.52 in1033.5 mb - 0.00 in0.0 mm 0.00 in0.0 mm
01:10 AM 26.1°F-3.3°C 21.3°F-5.9°C 82% Calm Calm -- 30.52 in1033.5 mb - 0.00 in0.0 mm 0.00 in0.0 mm
01:00 AM 26.1°F-3.3°C 21.3°F-5.9°C 82% 1.2 mph E1.9 kmh E -- 30.52 in1033.5 mb - 0.00 in0.0 mm 0.00 in0.0 mm
12:55 AM 26.2°F-3.2°C 21.5°F-5.8°C 82% Calm Calm -- 30.52 in1033.5 mb - 0.00 in0.0 mm 0.00 in0.0 mm
12:50 AM 26.3°F-3.2°C 21.5°F-5.8°C 82% Calm Calm -- 30.52 in1033.5 mb - 0.00 in0.0 mm 0.00 in0.0 mm
12:45 AM 26.5°F-3.1°C 21.7°F-5.7°C 82% Calm Calm -- 30.52 in1033.5 mb - 0.00 in0.0 mm 0.00 in0.0 mm
12:40 AM 26.5°F-3.1°C 21.7°F-5.7°C 82% Calm Calm -- 30.52 in1033.5 mb - 0.00 in0.0 mm 0.00 in0.0 mm
12:35 AM 26.6°F-3.0°C 21.8°F-5.7°C 82% Calm Calm -- 30.52 in1033.5 mb - 0.00 in0.0 mm 0.00 in0.0 mm
12:30 AM 26.6°F-3.0°C 21.8°F-5.7°C 82% Calm Calm -- 30.52 in1033.5 mb - 0.00 in0.0 mm 0.00 in0.0 mm
12:25 AM 26.8°F-2.9°C 21.7°F-5.7°C 81% Calm Calm -- 30.52 in1033.5 mb - 0.00 in0.0 mm 0.00 in0.0 mm
12:20 AM 27.0°F-2.8°C 21.9°F-5.6°C 81% Calm Calm -- 30.52 in1033.5 mb - 0.00 in0.0 mm 0.00 in0.0 mm
12:15 AM 27.1°F-2.7°C 22.1°F-5.5°C 81% Calm Calm -- 30.52 in1033.5 mb - 0.00 in0.0 mm 0.00 in0.0 mm
12:10 AM 27.1°F-2.7°C 22.4°F-5.3°C 82% Calm Calm -- 30.52 in1033.5 mb - 0.00 in0.0 mm 0.00 in0.0 mm
12:00 AM 27.3°F-2.6°C 22.3°F-5.4°C 81% Calm Calm -- 30.52 in1033.5 mb - 0.00 in0.0 mm 0.00 in0.0 mm